Time;durP1;ratioP1;P1;durP2;ratioP2;P2;SDS_P1;SDS_P2;PMS_P1;PMS_P2;Temp;Humidity;BMP_temperature;BMP_pressure;BME280_temperature;BME280_humidity;BME280_pressure;Samples;Min_cycle;Max_cycle;Signal;HPM_P1;HPM_P2
2023/10/30 00:03:59;;;;;;;0.20;0.20;;;;;;;;;;20527254;28;20341;-86
2023/10/30 00:14:01;;;;;;;0.40;0.30;;;;;;;;;;20587761;28;21085;-85
2023/10/30 00:24:03;;;;;;;0.47;0.30;;;;;;;;;;20543105;28;20221;-86
2023/10/30 00:34:09;;;;;;;0.20;0.20;;;;;;;;;;20501363;28;20229;-85
2023/10/30 00:44:11;;;;;;;0.60;0.27;;;;;;;;;;20549141;28;20224;-86
2023/10/30 00:54:13;;;;;;;0.33;0.30;;;;;;;;;;20556184;28;20252;-86
2023/10/30 01:04:35;;;;;;;0.43;0.27;;;;;;;;;;20529872;28;20240;-87
2023/10/30 01:14:36;;;;;;;0.30;0.30;;;;;;;;;;20542096;28;20282;-85
2023/10/30 01:24:38;;;;;;;0.20;0.20;;;;;;;;;;20548239;28;20221;-88
2023/10/30 01:34:40;;;;;;;0.30;0.30;;;;;;;;;;20564258;28;20682;-86
2023/10/30 01:44:57;;;;;;;0.60;0.40;;;;;;;;;;20558322;28;20217;-87
2023/10/30 01:54:59;;;;;;;1.30;0.40;;;;;;;;;;20574368;28;20352;-87
2023/10/30 02:05:01;;;;;;;2.13;0.43;;;;;;;;;;20544508;28;20224;-86
2023/10/30 02:15:03;;;;;;;0.40;0.40;;;;;;;;;;20551640;28;20275;-87
2023/10/30 02:25:06;;;;;;;2.00;0.40;;;;;;;;;;20542791;28;20229;-86
2023/10/30 02:35:16;;;;;;;0.50;0.30;;;12.00;99.90;;;;;;20553274;28;20224;-84
2023/10/30 02:45:19;;;;;;;0.73;0.67;;;;;;;;;;20542233;28;20294;-85
2023/10/30 02:55:20;;;;;;;0.40;0.40;;;;;;;;;;20530032;28;20275;-84
2023/10/30 03:05:22;;;;;;;0.50;0.30;;;;;;;;;;20498195;28;20225;-86
2023/10/30 03:15:24;;;;;;;0.20;0.20;;;;;;;;;;20556656;28;20264;-85
2023/10/30 03:25:25;;;;;;;1.30;0.33;;;;;;;;;;20615147;28;20275;-85
2023/10/30 03:35:27;;;;;;;1.00;0.40;;;;;;;;;;20562022;28;20233;-85
2023/10/30 03:45:31;;;;;;;0.63;0.33;;;;;;;;;;20505844;28;20246;-84
2023/10/30 03:55:34;;;;;;;0.30;0.23;;;;;;;;;;20560825;28;20286;-86
2023/10/30 04:05:37;;;;;;;0.30;0.30;;;;;;;;;;20533021;28;20227;-86
2023/10/30 04:15:39;;;;;;;3.63;0.30;;;;;;;;;;20562148;28;20571;-87
2023/10/30 04:25:41;;;;;;;0.77;0.50;;;;;;;;;;20520428;28;20280;-87
2023/10/30 04:35:43;;;;;;;0.20;0.20;;;;;;;;;;20539749;28;20217;-87
2023/10/30 04:45:44;;;;;;;0.53;0.47;;;;;;;;;;20548325;28;20623;-86
2023/10/30 04:55:49;;;;;;;0.20;0.20;;;;;;;;;;20500278;28;20611;-86
2023/10/30 05:05:50;;;;;;;0.60;0.30;;;;;;;;;;20567183;28;20236;-86
2023/10/30 05:15:52;;;;;;;0.30;0.30;;;;;;;;;;20527298;28;20679;-87
2023/10/30 05:25:54;;;;;;;0.60;0.30;;;;;;;;;;20522348;28;20260;-88
2023/10/30 05:35:56;;;;;;;0.30;0.30;;;;;;;;;;20534384;28;20268;-88
2023/10/30 05:45:58;;;;;;;0.30;0.30;;;;;;;;;;20576168;28;20224;-87
2023/10/30 05:55:59;;;;;;;0.40;0.37;;;;;;;;;;20536101;28;20328;-85
2023/10/30 06:06:01;;;;;;;0.53;0.30;;;;;;;;;;20517571;28;20229;-85
2023/10/30 06:16:03;;;;;;;0.43;0.30;;;;;;;;;;20542035;28;20225;-85
2023/10/30 06:26:12;;;;;;;0.30;0.27;;;12.00;99.90;;;;;;20544225;28;20216;-86
2023/10/30 06:36:14;;;;;;;0.40;0.30;;;;;;;;;;20608724;28;20243;-85
2023/10/30 06:46:16;;;;;;;0.73;0.53;;;;;;;;;;20566831;28;20292;-86
2023/10/30 06:56:18;;;;;;;0.33;0.30;;;;;;;;;;20560494;28;20229;-85
2023/10/30 07:06:19;;;;;;;0.40;0.40;;;;;;;;;;20525084;28;20221;-84
2023/10/30 07:16:21;;;;;;;0.33;0.30;;;;;;;;;;20544067;28;20213;-84
2023/10/30 07:26:23;;;;;;;0.83;0.50;;;;;;;;;;20563609;28;20264;-84
2023/10/30 07:36:26;;;;;;;0.77;0.50;;;;;;;;;;20532140;28;20290;-85
2023/10/30 07:46:27;;;;;;;0.87;0.60;;;;;;;;;;20524682;28;20217;-85
2023/10/30 07:56:29;;;;;;;1.00;0.70;;;;;;;;;;20512805;28;20232;-85
2023/10/30 08:06:32;;;;;;;0.50;0.40;;;;;;;;;;20518076;28;20225;-86
2023/10/30 08:16:34;;;;;;;0.30;0.30;;;;;;;;;;20577296;28;20208;-87
2023/10/30 08:26:38;;;;;;;1.00;0.50;;;;;;;;;;20524486;28;20233;-86
2023/10/30 08:36:40;;;;;;;2.73;1.10;;;;;;;;;;20541067;28;20217;-85
2023/10/30 08:46:42;;;;;;;0.97;0.47;;;;;;;;;;20527174;28;20228;-84
2023/10/30 08:56:44;;;;;;;0.30;0.30;;;;;;;;;;20559877;28;20294;-85
2023/10/30 09:06:46;;;;;;;0.57;0.30;;;;;;;;;;20552824;28;20240;-86
2023/10/30 09:16:47;;;;;;;0.40;0.40;;;;;;;;;;20552355;28;20571;-85
2023/10/30 09:26:49;;;;;;;1.57;0.27;;;;;;;;;;20561843;28;20240;-85
2023/10/30 09:36:51;;;;;;;0.70;0.50;;;;;;;;;;20573691;28;20740;-86
2023/10/30 09:46:53;;;;;;;1.83;0.90;;;;;;;;;;20559111;28;20232;-87
2023/10/30 09:56:56;;;;;;;1.27;0.83;;;;;;;;;;20553734;28;20279;-88
2023/10/30 10:06:58;;;;;;;1.10;0.67;;;;;;;;;;20544423;28;20232;-88
2023/10/30 10:17:00;;;;;;;1.03;0.77;;;;;;;;;;20528799;28;20279;-88
2023/10/30 10:27:04;;;;;;;2.00;0.70;;;;;;;;;;20549278;28;20220;-87
2023/10/30 10:37:06;;;;;;;1.83;1.13;;;;;;;;;;20542445;28;20295;-86
2023/10/30 10:47:07;;;;;;;1.30;0.80;;;;;;;;;;20558738;28;20568;-86
2023/10/30 10:57:10;;;;;;;0.93;0.60;;;;;;;;;;20542409;28;20244;-86
2023/10/30 11:07:13;;;;;;;1.00;0.60;;;;;;;;;;20538799;28;20690;-87
2023/10/30 11:17:15;;;;;;;1.27;0.80;;;;;;;;;;20530160;28;20256;-88
2023/10/30 11:27:27;;;;;;;3.00;1.03;;;;;;;;;;20562432;28;20766;-88
2023/10/30 11:37:32;;;;;;;1.43;0.80;;;;;;;;;;20575775;28;20224;-86
2023/10/30 11:47:34;;;;;;;2.83;0.80;;;;;;;;;;20551118;28;20232;-87
2023/10/30 11:57:36;;;;;;;0.87;0.57;;;;;;;;;;20537157;28;20220;-88
2023/10/30 12:07:38;;;;;;;0.70;0.57;;;;;;;;;;20552220;28;20236;-88
2023/10/30 12:17:44;;;;;;;1.33;0.60;;;;;;;;;;20521408;28;20216;-90
2023/10/30 12:27:59;;;;;;;0.63;0.50;;;;;;;;;;20545927;28;20255;-91
2023/10/30 12:38:12;;;;;;;1.63;0.97;;;;;;;;;;20543161;28;20276;-88
2023/10/30 12:48:14;;;;;;;2.13;0.70;;;;;;;;;;20548291;28;20220;-87
2023/10/30 12:58:16;;;;;;;1.77;0.90;;;;;;;;;;20528326;28;20221;-88
2023/10/30 13:08:17;;;;;;;0.87;0.60;;;;;;;;;;20519394;28;20232;-88
2023/10/30 13:18:19;;;;;;;1.50;0.70;;;;;;;;;;20571138;28;20232;-88
2023/10/30 13:28:22;;;;;;;1.07;0.80;;;;;;;;;;20554557;28;20224;-88
2023/10/30 13:38:25;;;;;;;1.00;0.70;;;;;;;;;;20489660;28;20229;-91
2023/10/30 13:48:28;;;;;;;0.80;0.60;;;;;;;;;;20559425;28;20236;-88
2023/10/30 13:58:30;;;;;;;1.00;0.70;;;;;;;;;;20557414;28;20228;-89
2023/10/30 14:08:34;;;;;;;0.70;0.50;;;;;;;;;;20533112;28;20224;-88
2023/10/30 14:18:36;;;;;;;5.33;1.17;;;;;;;;;;20554270;28;20283;-88
2023/10/30 14:28:45;;;;;;;0.77;0.60;;;;;;;;;;20555503;28;20635;-91
2023/10/30 14:38:52;;;;;;;1.60;0.70;;;;;;;;;;20557681;28;20224;-89
2023/10/30 14:48:54;;;;;;;0.93;0.57;;;;;;;;;;20561311;28;20749;-88
2023/10/30 14:58:56;;;;;;;2.57;0.80;;;;;;;;;;20533104;28;20228;-89
2023/10/30 15:08:59;;;;;;;1.20;0.70;;;;;;;;;;20534536;28;20229;-89
2023/10/30 15:19:01;;;;;;;1.47;0.83;;;;;;;;;;20517938;28;20269;-89
2023/10/30 15:29:04;;;;;;;2.00;0.80;;;;;;;;;;20573231;28;20220;-89
2023/10/30 15:39:06;;;;;;;2.37;1.30;;;;;;;;;;20533227;28;20232;-91
2023/10/30 15:49:09;;;;;;;4.13;1.20;;;;;;;;;;20591560;28;20244;-89
2023/10/30 15:59:12;;;;;;;2.47;1.10;;;;;;;;;;20576944;28;20290;-90
2023/10/30 16:09:13;;;;;;;1.77;1.00;;;;;;;;;;20549781;28;20240;-90
2023/10/30 16:19:16;;;;;;;1.87;1.00;;;;;;;;;;20598685;28;20270;-87
2023/10/30 16:29:17;;;;;;;1.07;0.90;;;;;;;;;;20587612;28;20291;-89
2023/10/30 16:39:19;;;;;;;1.57;1.10;;;;;;;;;;20495513;23;20229;-68
2023/10/30 16:49:21;;;;;;;2.20;1.27;;;;;;;;;;20550335;28;20232;-68
2023/10/30 17:09:40;;;;;;;2.07;1.60;;;;;;;;;;20484399;28;20723;-68
2023/10/30 17:19:42;;;;;;;2.23;1.40;;;;;;;;;;20428124;28;20283;-67
2023/10/30 17:29:44;;;;;;;2.60;1.50;;;;;;;;;;20451173;28;20283;-68
2023/10/30 17:39:45;;;;;;;2.63;1.40;;;;;;;;;;20463888;28;20221;-67
2023/10/30 17:49:48;;;;;;;8.57;2.77;;;;;;;;;;20485078;28;20629;-68
2023/10/30 17:59:50;;;;;;;1.90;1.40;;;;;;;;;;20462758;28;20304;-68
2023/10/30 18:09:51;;;;;;;1.27;0.93;;;;;;;;;;20452258;28;20221;-68
2023/10/30 18:19:53;;;;;;;2.30;1.20;;;;;;;;;;20454098;28;20217;-68
2023/10/30 18:29:55;;;;;;;3.13;1.53;;;;;;;;;;20469620;28;20225;-68
2023/10/30 18:39:57;;;;;;;2.00;1.60;;;;;;;;;;20468661;28;20221;-68
2023/10/30 18:49:59;;;;;;;2.70;1.50;;;;;;;;;;20476163;28;20700;-68
2023/10/30 19:00:01;;;;;;;3.77;1.30;;;;;;;;;;20465908;28;20763;-68
2023/10/30 19:10:03;;;;;;;1.80;1.30;;;;;;;;;;20432033;28;20237;-67
2023/10/30 19:20:05;;;;;;;1.30;1.03;;;;;;;;;;20480341;28;20241;-67
2023/10/30 19:30:07;;;;;;;1.73;1.20;;;;;;;;;;20449673;28;20300;-67
2023/10/30 19:40:10;;;;;;;1.57;1.07;;;13.40;99.90;;;;;;20425485;28;20685;-68
2023/10/30 19:50:12;;;;;;;1.40;0.83;;;;;;;;;;20420158;28;20230;-67
2023/10/30 20:22:08;;;;;;;1.23;1.13;;;;;;;;;;20673906;28;20586;-68
2023/10/30 20:32:10;;;;;;;2.40;1.00;;;;;;;;;;20623301;28;20236;-68
2023/10/30 20:42:12;;;;;;;1.50;1.00;;;;;;;;;;20642000;28;20309;-67
2023/10/30 20:52:14;;;;;;;0.97;0.70;;;;;;;;;;20632739;28;20783;-67
2023/10/30 21:02:18;;;;;;;2.47;0.97;;;;;;;;;;20620190;28;20587;-68
2023/10/30 21:12:19;;;;;;;1.43;1.13;;;;;;;;;;20621987;28;20223;-68
2023/10/30 21:22:22;;;;;;;2.70;1.10;;;;;;;;;;20615808;28;20215;-68
2023/10/30 21:32:24;;;;;;;1.93;0.80;;;;;;;;;;20635037;28;20588;-67
2023/10/30 21:42:27;;;;;;;0.50;0.40;;;;;;;;;;20620086;28;20372;-68
2023/10/30 21:52:29;;;;;;;0.53;0.40;;;;;;;;;;20605661;28;20277;-68
2023/10/30 22:02:31;;;;;;;0.40;0.40;;;;;;;;;;20612091;28;20273;-67
2023/10/30 22:12:33;;;;;;;1.87;0.47;;;;;;;;;;20630516;28;20220;-68
2023/10/30 22:22:36;;;;;;;0.40;0.30;;;;;;;;;;20639592;28;20224;-67
2023/10/30 22:32:41;;;;;;;0.20;0.20;;;;;;;;;;20658392;28;20211;-67
2023/10/30 22:42:42;;;;;;;0.20;0.20;;;;;;;;;;20620420;28;20282;-68
2023/10/30 22:52:44;;;;;;;0.50;0.30;;;;;;;;;;20628184;28;20231;-68
2023/10/30 23:02:46;;;;;;;0.53;0.20;;;;;;;;;;20642038;28;20278;-67
2023/10/30 23:12:48;;;;;;;0.20;0.20;;;;;;;;;;20657444;28;20219;-68
2023/10/30 23:22:50;;;;;;;0.20;0.20;;;;;;;;;;20643647;28;20249;-67
2023/10/30 23:32:52;;;;;;;0.23;0.23;;;;;;;;;;20653373;28;20215;-68
2023/10/30 23:42:54;;;;;;;0.70;0.30;;;;;;;;;;20644501;28;20196;-68
2023/10/30 23:52:56;;;;;;;4.73;0.30;;;;;;;;;;20637482;28;20223;-68
